Terminal Aerodrome Forecast
Issued by NWS Springfield, MO

Home | Current Version | Previous Version | Text Only | Print | Product List | Glossary On
Versions: 1 2 3 4 5 6 7 8 9 10 11 12 13 14 15 16 17 18 19 20 21 22 23 24 25 26 27 28 29 30
248
FTUS43 KSGF 241120
TAFSGF
TAF
KSGF 241120Z 2412/2512 17012G17KT P6SM OVC035
     FM241400 22015G20KT P6SM OVC015
     FM241900 23014G19KT P6SM BKN025
      TEMPO 2419/2423 2SM TSRA OVC025CB
     FM250100 30010KT P6SM SCT100
     FM250700 33008KT 5SM -DZ OVC007=

USA.gov is the U.S. government's official web portal to all federal, state and local government web resources and services.